Wednesday, June 20, 2018, 10:56 AM EDT
Back to Local

KBWI, Baltimore-washington International

Location: Glen Burnie, MD, United States Lat: 39.167
Local Time: 10:56 AM EDT (14:56 GMT) Lon: -76.683
Time Zone: US/Eastern Elev: 147 ft

Show me the last for .
Show Decoded

2018-06-20 09:54 METAR KBWI 201354Z VRB04KT 10SM FEW060 SCT160 SCT250 27/15 A2987 RMK AO2 SLP115
                 T02670150 =
2018-06-20 08:54 METAR KBWI 201254Z 06006KT 10SM SCT060 SCT160 SCT250 25/14 A2988 RMK AO2 SLP117
                 T02500139 =
2018-06-20 07:54 METAR KBWI 201154Z VRB04KT 10SM BKN055 BKN160 BKN250 23/15 A2988 RMK AO2 SLP118
                 70001 T02280150 10228 20189 51006 =
2018-06-20 06:54 METAR KBWI 201054Z 00000KT 10SM BKN060 BKN120 BKN250 22/15 A2988 RMK AO2 SLP118
                 T02170150 =
2018-06-20 05:54 METAR KBWI 200954Z 00000KT 10SM BKN060 BKN250 20/16 A2988 RMK AO2 SLP115
                 T02000161 =
2018-06-20 04:54 METAR KBWI 200854Z 00000KT 10SM SCT065 BKN250 19/16 A2987 RMK AO2 SLP112
                 T01940161 56002 =
2018-06-20 03:54 METAR KBWI 200754Z 00000KT 10SM BKN065 BKN250 21/17 A2987 RMK AO2 SLP112
                 T02060167 =
2018-06-20 02:54 METAR KBWI 200654Z 00000KT 10SM FEW065 SCT170 BKN250 19/17 A2987 RMK AO2 SLP112
                 T01940167 =
2018-06-20 01:54 METAR KBWI 200554Z 00000KT 10SM FEW065 SCT170 BKN250 21/17 A2987 RMK AO2 SLP113
                 T02060167 10272 20206 51001 =
2018-06-20 00:54 METAR KBWI 200454Z 00000KT 10SM FEW110 SCT179 BKN250 22/17 A2987 RMK AO2 SLP113
                 T02170172 403220217 =
2018-06-19 23:54 METAR KBWI 200354Z VRB03KT 10SM FEW110 SCT170 SCT250 23/17 A2987 RMK AO2 SLP113
                 T02280172 =
2018-06-19 22:54 METAR KBWI 200254Z 34004KT 10SM FEW110 SCT170 SCT250 24/18 A2987 RMK AO2 SLP112
                 T02440183 50010 =
2018-06-19 21:54 METAR KBWI 200154Z 29005KT 10SM SCT170 BKN250 25/19 A2987 RMK AO2 SLP113
                 T02500194 =
2018-06-19 20:54 METAR KBWI 200054Z 34004KT 10SM FEW046 SCT080 SCT170 BKN250 26/21 A2985 RMK AO2
                 SLP108 T02560206 =
2018-06-19 19:54 METAR KBWI 192354Z 30003KT 10SM FEW036 FEW080 SCT130 SCT170 BKN250 27/22 A2984
                 RMK AO2 SLP101 60001 T02720217 10311 20261 53006 =
2018-06-19 18:54 METAR KBWI 192254Z 29006KT 10SM FEW036 SCT080 SCT130 BKN170 28/22 A2982 RMK AO2
                 SLP097 T02780222 =
2018-06-19 17:54 METAR KBWI 192154Z 30006KT 10SM FEW034 FEW055 SCT130 BKN160 BKN250 27/23 A2982
                 RMK AO2 SLP095 T02670233 =
2018-06-19 16:54 METAR KBWI 192054Z 34007KT 10SM FEW041 SCT055 BKN130 BKN170 27/23 A2982 RMK AO2
                 RAE49 SLP096 VCSH NE-SE P0001 60001 T02670228 58002 =
2018-06-19 15:54 METAR KBWI 191954Z 34006KT 10SM -RA FEW034 BKN055 BKN085 BKN160 27/22 A2983 RMK
                 AO2 RAB47 SLP098 P0000 T02720217 =
2018-06-19 14:54 METAR KBWI 191854Z 36006KT 10SM FEW032 SCT060 BKN085 BKN160 29/22 A2983 RMK AO2
                 TSE04 SLP099 CB DSNT S-W MOV SE T02890222 =
2018-06-19 14:06 METAR KBWI 191806Z 03010KT 10SM FEW011 SCT038CB BKN085 BKN160 31/23 A2982 RMK
                 AO2 TSE04 OCNL LTGICCG DSNT S CB DSNT S MOV SE T03060233 =
2018-06-19 13:54 METAR KBWI 191754Z 02008KT 10SM TS FEW013 SCT036CB BKN090 BKN160 29/23 A2982 RMK
                 AO2 LTG DSNT SW AND W TSB34 SLP098 OCNL LTGICCG S-SW TS S-SW MOV SE VCSH S-SW
                 T02890233 10322 20261 50000 =
2018-06-19 13:34 METAR KBWI 191734Z 02009G18KT 10SM TS SCT036CB BKN070 BKN095 BKN160 31/23 A2982
                 RMK AO2 TSB34 OCNL LTGICCG S-W TS S-W MOV SE T03060228 =
2018-06-19 12:54 METAR KBWI 191654Z 33006KT 10SM SCT040TCU BKN085 BKN110 BKN160 30/23 A2982 RMK
                 AO2 SLP097 VIRGA SE TCU ALQDS T03000228 =
2018-06-19 11:54 METAR KBWI 191554Z 33009KT 10SM SCT041TCU BKN075 BKN160 BKN250 31/23 A2983 RMK
                 AO2 SLP099 TCU NW-E-S T03110233 =

Support USWX by starting your Amazon purchase here.